createdAt,value
2019-02-20T00:00:50.525Z,2.40
2019-02-20T00:03:20.810Z,2.50
2019-02-20T00:05:51.182Z,2.50
2019-02-20T00:08:21.542Z,2.40
2019-02-20T00:10:51.730Z,2.40
2019-02-20T00:13:22.015Z,2.30
2019-02-20T00:15:52.408Z,2.30
2019-02-20T00:18:22.686Z,2.30
2019-02-20T00:20:52.972Z,2.30
2019-02-20T00:23:23.266Z,2.20
2019-02-20T00:25:53.482Z,2.20
2019-02-20T00:28:23.664Z,2.20
2019-02-20T00:30:53.832Z,2.20
2019-02-20T00:33:24.061Z,2.10
2019-02-20T00:35:54.267Z,2.10
2019-02-20T00:38:24.592Z,2.00
2019-02-20T00:40:54.822Z,2.00
2019-02-20T00:43:25.135Z,2.00
2019-02-20T00:46:06.499Z,2.00
2019-02-20T00:48:51.209Z,2.00
2019-02-20T00:51:49.506Z,2.00
2019-02-20T00:54:19.821Z,2.00
2019-02-20T00:56:50.162Z,2.00
2019-02-20T00:59:20.340Z,2.00
2019-02-20T01:01:50.704Z,2.00
2019-02-20T01:04:20.966Z,1.90
2019-02-20T01:06:52.248Z,1.90
2019-02-20T01:09:22.547Z,1.80
2019-02-20T01:11:52.835Z,1.80
2019-02-20T01:14:23.111Z,1.70
2019-02-20T01:16:54.845Z,1.70
2019-02-20T01:19:24.982Z,1.70
2019-02-20T01:21:55.404Z,1.70
2019-02-20T01:24:25.745Z,1.70
2019-02-20T01:26:56.071Z,1.70
2019-02-20T01:29:26.386Z,1.80
2019-02-20T01:31:56.677Z,1.80
2019-02-20T01:34:26.927Z,1.90
2019-02-20T01:36:57.235Z,1.90
2019-02-20T01:39:27.463Z,1.90
2019-02-20T01:41:57.578Z,1.90
2019-02-20T01:44:27.851Z,1.90
2019-02-20T01:46:58.055Z,1.90
2019-02-20T01:49:28.371Z,1.90
2019-02-20T01:51:58.695Z,1.90
2019-02-20T01:54:28.944Z,1.90
2019-02-20T01:56:59.092Z,2.00
2019-02-20T01:59:29.251Z,2.00
2019-02-20T02:01:59.431Z,1.90
2019-02-20T02:04:29.616Z,1.90
2019-02-20T02:06:59.891Z,1.90
2019-02-20T02:09:30.091Z,1.90
2019-02-20T02:12:00.399Z,1.90
2019-02-20T02:14:30.721Z,1.90
2019-02-20T02:17:01.030Z,1.80
2019-02-20T02:19:31.214Z,1.80
2019-02-20T02:22:01.474Z,1.80
2019-02-20T02:24:31.647Z,1.80
2019-02-20T02:27:01.909Z,1.80
2019-02-20T02:29:32.086Z,1.70
2019-02-20T02:32:02.289Z,1.80
2019-02-20T02:34:32.620Z,1.70
2019-02-20T02:37:02.969Z,1.80
2019-02-20T02:39:33.225Z,1.70
2019-02-20T02:42:03.386Z,1.70
2019-02-20T02:44:33.639Z,1.60
2019-02-20T02:47:03.803Z,1.60
2019-02-20T02:49:34.091Z,1.50
2019-02-20T02:52:04.222Z,1.30
2019-02-20T02:54:34.496Z,1.30
2019-02-20T02:57:04.734Z,1.30
2019-02-20T02:59:35.076Z,1.20
2019-02-20T03:02:05.290Z,1.30
2019-02-20T03:04:35.508Z,1.20
2019-02-20T03:07:05.669Z,1.30
2019-02-20T03:09:35.984Z,1.30
2019-02-20T03:12:06.121Z,1.30
2019-02-20T03:14:36.338Z,1.30
2019-02-20T03:17:06.650Z,1.30
2019-02-20T03:19:36.804Z,1.40
2019-02-20T03:22:06.998Z,1.40
2019-02-20T03:24:37.260Z,1.40
2019-02-20T03:27:07.435Z,1.40
2019-02-20T03:29:37.568Z,1.40
2019-02-20T03:32:07.874Z,1.40
2019-02-20T03:34:38.220Z,1.50
2019-02-20T03:37:08.429Z,1.40
2019-02-20T03:39:38.793Z,1.40
2019-02-20T03:42:09.050Z,1.40
2019-02-20T03:44:39.235Z,1.40
2019-02-20T03:47:09.536Z,1.50
2019-02-20T03:49:39.846Z,1.40
2019-02-20T03:52:10.118Z,1.50
2019-02-20T03:54:40.495Z,1.40
2019-02-20T03:57:10.792Z,1.50
2019-02-20T03:59:41.112Z,1.40
2019-02-20T04:02:11.246Z,1.40
2019-02-20T04:04:41.374Z,1.30
2019-02-20T04:07:11.533Z,1.30
2019-02-20T04:09:41.741Z,1.30
2019-02-20T04:12:12.010Z,1.30
2019-02-20T04:14:42.230Z,1.30
2019-02-20T04:17:12.550Z,1.40
2019-02-20T04:19:42.776Z,1.40
2019-02-20T04:22:13.110Z,1.30
2019-02-20T04:24:43.431Z,1.30
2019-02-20T04:27:13.810Z,1.30
2019-02-20T04:29:43.995Z,1.40
2019-02-20T04:32:14.218Z,1.40
2019-02-20T04:34:44.493Z,1.40
2019-02-20T04:37:14.713Z,1.40
2019-02-20T04:39:45.003Z,1.40
2019-02-20T04:42:15.228Z,1.50
2019-02-20T04:44:45.438Z,1.50
2019-02-20T04:47:15.615Z,1.40
2019-02-20T04:49:45.944Z,1.40
2019-02-20T04:52:16.126Z,1.40
2019-02-20T04:54:46.284Z,1.40
2019-02-20T04:57:16.521Z,1.40
2019-02-20T04:59:46.781Z,1.40
2019-02-20T05:02:16.926Z,1.40
2019-02-20T05:04:47.054Z,1.40
2019-02-20T05:07:17.239Z,1.40
2019-02-20T05:09:47.438Z,1.40
2019-02-20T05:12:17.696Z,1.40
2019-02-20T05:14:47.934Z,1.30
2019-02-20T05:17:18.189Z,1.40
2019-02-20T05:19:48.504Z,1.40
2019-02-20T05:22:18.650Z,1.40
2019-02-20T05:24:48.982Z,1.50
2019-02-20T05:27:19.283Z,1.50
2019-02-20T05:29:49.430Z,1.50
2019-02-20T05:32:19.711Z,1.50
2019-02-20T05:34:49.874Z,1.50
2019-02-20T05:37:20.167Z,1.50
2019-02-20T05:39:50.497Z,1.60
2019-02-20T05:42:20.821Z,1.60
2019-02-20T05:44:51.132Z,1.70
2019-02-20T05:47:21.395Z,1.70
2019-02-20T05:49:51.645Z,1.70
2019-02-20T05:52:21.794Z,1.70
2019-02-20T05:54:52.074Z,1.70
2019-02-20T05:57:22.257Z,1.70
2019-02-20T05:59:52.579Z,1.80
2019-02-20T06:02:22.787Z,1.80
2019-02-20T06:04:53.038Z,1.80
2019-02-20T06:07:23.227Z,1.80
2019-02-20T06:09:53.595Z,1.80
2019-02-20T06:12:23.911Z,1.80
2019-02-20T06:14:54.175Z,1.80
2019-02-20T06:17:24.493Z,1.80
2019-02-20T06:19:54.639Z,1.90
2019-02-20T06:22:24.949Z,1.80
2019-02-20T06:24:55.188Z,1.90
2019-02-20T06:27:25.453Z,1.90
2019-02-20T06:29:55.515Z,1.90
2019-02-20T06:32:25.829Z,1.90
2019-02-20T06:34:56.047Z,1.90
2019-02-20T06:37:26.271Z,1.90
2019-02-20T06:39:56.436Z,1.90
2019-02-20T06:42:26.735Z,1.90
2019-02-20T06:44:56.839Z,1.90
2019-02-20T06:47:27.141Z,1.90
2019-02-20T06:49:57.495Z,1.90
2019-02-20T06:52:27.669Z,2.00
2019-02-20T06:54:58.020Z,1.90
2019-02-20T06:57:29.243Z,2.00
2019-02-20T07:00:07.339Z,2.00
2019-02-20T07:02:37.517Z,2.10
2019-02-20T07:05:44.761Z,2.10
2019-02-20T07:09:05.586Z,2.20
2019-02-20T07:12:56.855Z,2.30
2019-02-20T07:16:02.975Z,2.30
2019-02-20T07:19:00.819Z,2.40
2019-02-20T07:22:54.250Z,2.40
2019-02-20T07:25:48.800Z,2.50
2019-02-20T07:28:58.536Z,2.60
2019-02-20T07:31:28.864Z,2.70
2019-02-20T07:33:59.227Z,2.70
2019-02-20T07:36:29.569Z,2.80
2019-02-20T07:38:59.748Z,2.90
2019-02-20T07:41:30.055Z,2.90
2019-02-20T07:44:00.225Z,3.00
2019-02-20T07:46:30.485Z,3.10
2019-02-20T07:49:02.893Z,3.20
2019-02-20T07:51:33.051Z,3.20
2019-02-20T07:54:03.330Z,3.30
2019-02-20T07:56:33.511Z,3.40
2019-02-20T07:59:03.703Z,3.50
2019-02-20T08:01:33.998Z,3.60
2019-02-20T08:04:04.244Z,3.60
2019-02-20T08:06:34.476Z,3.70
2019-02-20T08:09:05.765Z,3.80
2019-02-20T08:11:36.157Z,3.80
2019-02-20T08:14:06.494Z,3.90
2019-02-20T08:16:36.823Z,3.90
2019-02-20T08:19:07.242Z,4.00
2019-02-20T08:21:37.458Z,4.00
2019-02-20T08:24:07.814Z,4.10
2019-02-20T08:26:38.150Z,4.20
2019-02-20T08:29:08.441Z,4.20
2019-02-20T08:31:38.758Z,4.30
2019-02-20T08:34:08.986Z,4.40
2019-02-20T08:36:39.266Z,4.50
2019-02-20T08:39:09.491Z,4.60
2019-02-20T08:41:39.819Z,4.60
2019-02-20T08:44:10.003Z,4.70
2019-02-20T08:46:40.303Z,4.80
2019-02-20T08:49:10.637Z,4.80
2019-02-20T08:51:40.988Z,4.90
2019-02-20T08:54:11.316Z,4.90
2019-02-20T08:56:41.662Z,5.00
2019-02-20T08:59:11.982Z,5.10
2019-02-20T09:01:42.191Z,5.10
2019-02-20T09:04:12.598Z,5.20
2019-02-20T09:06:42.866Z,5.30
2019-02-20T09:09:13.267Z,5.40
2019-02-20T09:11:45.551Z,5.50
2019-02-20T09:14:15.434Z,5.60
2019-02-20T09:16:45.714Z,5.70
2019-02-20T09:19:15.866Z,5.80
2019-02-20T09:21:46.041Z,5.90
2019-02-20T09:24:16.438Z,6.00
2019-02-20T09:26:46.738Z,6.10
2019-02-20T09:29:17.029Z,6.20
2019-02-20T09:31:47.397Z,6.30
2019-02-20T09:34:17.794Z,6.40
2019-02-20T09:36:48.094Z,6.50
2019-02-20T09:39:38.055Z,6.70
2019-02-20T09:42:10.576Z,6.80
2019-02-20T09:44:44.119Z,6.80
2019-02-20T09:47:14.496Z,6.80
2019-02-20T09:49:44.655Z,6.90
2019-02-20T09:52:14.903Z,7.00
2019-02-20T09:54:45.156Z,7.10
2019-02-20T09:57:15.515Z,7.20
2019-02-20T09:59:45.743Z,7.30
2019-02-20T10:02:15.883Z,7.40
2019-02-20T10:04:46.213Z,7.50
2019-02-20T10:07:16.445Z,7.70
2019-02-20T10:09:46.639Z,7.80
2019-02-20T10:12:16.896Z,7.90
2019-02-20T10:14:47.129Z,8.00
2019-02-20T10:17:17.500Z,8.10
2019-02-20T10:19:47.728Z,8.30
2019-02-20T10:22:17.920Z,8.40
2019-02-20T10:24:48.114Z,8.50
2019-02-20T10:27:18.442Z,8.70
2019-02-20T10:29:48.625Z,8.80
2019-02-20T10:32:19.067Z,9.00
2019-02-20T10:34:49.287Z,9.00
2019-02-20T10:37:19.460Z,9.10
2019-02-20T10:39:49.725Z,9.20
2019-02-20T10:42:20.066Z,9.20
2019-02-20T10:44:50.377Z,9.30
2019-02-20T10:47:20.714Z,9.40
2019-02-20T10:49:50.954Z,9.50
2019-02-20T10:52:21.301Z,9.70
2019-02-20T10:54:57.523Z,9.80
2019-02-20T10:57:23.634Z,9.90
2019-02-20T10:59:53.984Z,9.90
2019-02-20T11:02:24.353Z,10.10
2019-02-20T11:04:54.603Z,9.90
2019-02-20T11:07:24.859Z,9.90
2019-02-20T11:09:55.212Z,10.10
2019-02-20T11:12:25.401Z,10.10
2019-02-20T11:14:55.757Z,10.30
2019-02-20T11:17:26.074Z,10.40
2019-02-20T11:19:56.453Z,10.60
2019-02-20T11:22:27.575Z,10.80
2019-02-20T11:24:57.897Z,11.00
2019-02-20T11:27:28.184Z,11.20
2019-02-20T11:29:58.416Z,11.30
2019-02-20T11:32:28.595Z,11.60
2019-02-20T11:34:58.966Z,11.80
2019-02-20T11:37:29.253Z,12.10
2019-02-20T11:39:59.592Z,12.40
2019-02-20T11:42:29.899Z,12.60
2019-02-20T11:45:00.209Z,12.90
2019-02-20T11:47:30.541Z,13.10
2019-02-20T11:50:00.810Z,12.80
2019-02-20T11:52:38.144Z,12.90
2019-02-20T11:55:03.053Z,13.00
2019-02-20T11:57:33.450Z,13.00
2019-02-20T12:00:04.043Z,13.20
2019-02-20T12:02:37.467Z,13.40
2019-02-20T12:05:06.848Z,13.80
2019-02-20T12:07:37.197Z,14.00
2019-02-20T12:10:08.215Z,14.30
2019-02-20T12:12:38.464Z,14.50
2019-02-20T12:15:08.872Z,14.60
2019-02-20T12:17:39.157Z,14.80
2019-02-20T12:20:09.610Z,14.70
2019-02-20T12:22:39.918Z,14.90
2019-02-20T12:25:10.726Z,15.10
2019-02-20T12:27:41.101Z,15.30
2019-02-20T12:30:11.477Z,15.50
2019-02-20T12:32:41.833Z,15.40
2019-02-20T12:35:12.042Z,15.40
2019-02-20T12:37:42.293Z,15.50
2019-02-20T12:40:12.629Z,15.60
2019-02-20T12:42:42.944Z,15.60
2019-02-20T12:45:13.341Z,15.10
2019-02-20T12:47:43.764Z,14.90
2019-02-20T12:50:14.033Z,14.20
2019-02-20T12:52:44.416Z,14.40
2019-02-20T12:55:14.673Z,14.60
2019-02-20T12:57:45.088Z,14.60
2019-02-20T13:00:17.002Z,13.90
2019-02-20T13:02:47.401Z,13.70
2019-02-20T13:05:17.742Z,13.60
2019-02-20T13:07:48.051Z,13.70
2019-02-20T13:10:18.368Z,13.80
2019-02-20T13:12:48.672Z,14.00
2019-02-20T13:15:19.009Z,14.10
2019-02-20T13:17:49.250Z,14.20
2019-02-20T13:20:21.268Z,14.30
2019-02-20T13:22:51.800Z,14.20
2019-02-20T13:25:22.295Z,13.80
2019-02-20T13:27:52.494Z,13.80
2019-02-20T13:30:22.840Z,13.90
2019-02-20T13:32:53.122Z,13.90
2019-02-20T13:35:23.422Z,13.90
2019-02-20T13:37:53.684Z,13.50
2019-02-20T13:40:23.964Z,12.80
2019-02-20T13:42:54.230Z,12.70
2019-02-20T13:45:24.561Z,12.60
2019-02-20T13:47:54.982Z,12.80
2019-02-20T13:50:25.574Z,12.90
2019-02-20T13:52:55.925Z,13.00
2019-02-20T13:55:34.315Z,13.00
2019-02-20T13:57:58.217Z,13.10
2019-02-20T14:00:28.603Z,13.10
2019-02-20T14:02:58.873Z,13.10
2019-02-20T14:05:29.085Z,13.20
2019-02-20T14:07:59.487Z,13.10
2019-02-20T14:10:29.874Z,13.10
2019-02-20T14:13:00.361Z,12.80
2019-02-20T14:15:30.830Z,12.80
2019-02-20T14:18:01.198Z,12.90
2019-02-20T14:20:31.662Z,13.00
2019-02-20T14:23:02.003Z,13.10
2019-02-20T14:25:32.379Z,13.10
2019-02-20T14:28:02.662Z,13.20
2019-02-20T14:30:33.072Z,13.20
2019-02-20T14:33:03.613Z,13.20
2019-02-20T14:35:33.835Z,13.30
2019-02-20T14:38:04.160Z,13.50
2019-02-20T14:40:34.577Z,13.50
2019-02-20T14:43:04.953Z,13.50
2019-02-20T14:45:35.339Z,13.40
2019-02-20T14:48:05.924Z,13.40
2019-02-20T14:50:36.433Z,13.20
2019-02-20T14:53:07.118Z,12.80
2019-02-20T14:55:37.470Z,12.70
2019-02-20T14:58:08.239Z,12.80
2019-02-20T15:00:38.570Z,12.80
2019-02-20T15:03:08.958Z,12.60
2019-02-20T15:05:39.365Z,12.60
2019-02-20T15:08:09.771Z,12.60
2019-02-20T15:10:40.145Z,12.80
2019-02-20T15:13:10.535Z,12.90
2019-02-20T15:15:41.087Z,13.00
2019-02-20T15:18:11.421Z,13.10
2019-02-20T15:20:41.676Z,13.00
2019-02-20T15:23:12.065Z,12.80
2019-02-20T15:25:42.501Z,12.90
2019-02-20T15:28:13.037Z,12.90
2019-02-20T15:30:43.488Z,12.50
2019-02-20T15:33:13.776Z,12.60
2019-02-20T15:35:44.163Z,12.60
2019-02-20T15:38:14.450Z,12.70
2019-02-20T15:40:44.729Z,12.70
2019-02-20T15:43:15.045Z,12.70
2019-02-20T15:45:45.392Z,12.70
2019-02-20T15:48:23.058Z,12.70
2019-02-20T15:50:47.730Z,12.80
2019-02-20T15:53:18.075Z,12.70
2019-02-20T15:55:48.393Z,12.70
2019-02-20T15:58:19.063Z,12.70
2019-02-20T16:00:49.367Z,12.70
2019-02-20T16:03:19.645Z,12.70
2019-02-20T16:05:49.998Z,12.70
2019-02-20T16:08:20.403Z,12.70
2019-02-20T16:10:50.758Z,12.70
2019-02-20T16:13:21.298Z,12.70
2019-02-20T16:15:51.570Z,12.60
2019-02-20T16:18:21.801Z,12.60
2019-02-20T16:20:52.229Z,12.60
2019-02-20T16:23:22.591Z,12.50
2019-02-20T16:25:52.913Z,12.50
2019-02-20T16:28:27.902Z,12.50
2019-02-20T16:30:55.312Z,12.50
2019-02-20T16:33:25.626Z,12.40
2019-02-20T16:35:55.965Z,12.30
2019-02-20T16:38:26.216Z,12.30
2019-02-20T16:40:56.610Z,12.20
2019-02-20T16:43:26.924Z,12.20
2019-02-20T16:45:57.212Z,12.20
2019-02-20T16:48:27.483Z,12.10
2019-02-20T16:50:57.803Z,12.10
2019-02-20T16:53:28.116Z,12.00
2019-02-20T16:55:59.003Z,11.90
2019-02-20T16:58:29.423Z,11.80
2019-02-20T17:00:59.744Z,11.80
2019-02-20T17:03:29.996Z,11.70
2019-02-20T17:06:00.325Z,11.60
2019-02-20T17:08:30.691Z,11.50
2019-02-20T17:11:01.190Z,11.40
2019-02-20T17:13:31.514Z,11.40
2019-02-20T17:16:01.806Z,11.20
2019-02-20T17:18:32.201Z,11.10
2019-02-20T17:21:02.555Z,11.00
2019-02-20T17:23:38.863Z,11.00
2019-02-20T17:26:09.145Z,10.90
2019-02-20T17:28:39.431Z,10.90
2019-02-20T17:31:09.643Z,10.80
2019-02-20T17:33:39.974Z,10.80
2019-02-20T17:36:10.322Z,10.70
2019-02-20T17:38:40.691Z,10.70
2019-02-20T17:41:11.304Z,10.70
2019-02-20T17:43:43.590Z,10.60
2019-02-20T17:46:13.932Z,10.50
2019-02-20T17:48:44.346Z,10.50
2019-02-20T17:51:15.093Z,10.40
2019-02-20T17:53:45.466Z,10.40
2019-02-20T17:56:15.780Z,10.30
2019-02-20T17:58:46.066Z,10.30
2019-02-20T18:01:17.902Z,10.20
2019-02-20T18:03:48.166Z,10.10
2019-02-20T18:06:18.500Z,10.00
2019-02-20T18:08:48.833Z,10.00
2019-02-20T18:11:19.126Z,9.80
2019-02-20T18:13:49.516Z,9.70
2019-02-20T18:16:19.784Z,9.60
2019-02-20T18:18:50.030Z,9.60
2019-02-20T18:21:20.247Z,9.50
2019-02-20T18:23:50.625Z,9.50
2019-02-20T18:26:20.868Z,9.50
2019-02-20T18:28:51.159Z,9.50
2019-02-20T18:31:21.352Z,9.40
2019-02-20T18:33:51.712Z,9.40
2019-02-20T18:36:22.077Z,9.30
2019-02-20T18:38:52.307Z,9.30
2019-02-20T18:41:22.704Z,9.30
2019-02-20T18:43:55.149Z,9.20
2019-02-20T18:46:25.471Z,9.10
2019-02-20T18:48:55.928Z,9.00
2019-02-20T18:51:26.346Z,8.90
2019-02-20T18:53:56.675Z,8.80
2019-02-20T18:56:34.139Z,8.80
2019-02-20T18:59:04.498Z,8.80
2019-02-20T19:01:34.828Z,8.80
2019-02-20T19:04:07.765Z,8.80
2019-02-20T19:06:37.322Z,8.80
2019-02-20T19:09:23.772Z,8.70
2019-02-20T19:12:03.847Z,8.70
2019-02-20T19:15:03.297Z,8.60
2019-02-20T19:18:19.605Z,8.60
2019-02-20T19:21:11.649Z,8.60
2019-02-20T19:24:28.256Z,8.50
2019-02-20T19:27:38.528Z,8.50
2019-02-20T19:30:34.700Z,8.40
2019-02-20T19:33:37.257Z,8.40
2019-02-20T19:36:59.953Z,8.40
2019-02-20T19:39:43.692Z,8.40
2019-02-20T19:42:43.006Z,8.30
2019-02-20T19:46:04.029Z,8.30
2019-02-20T19:49:46.161Z,8.20
2019-02-20T19:52:49.551Z,8.10
2019-02-20T19:55:48.546Z,8.00
2019-02-20T19:58:57.940Z,7.90
2019-02-20T20:01:56.990Z,7.80
2019-02-20T20:04:56.651Z,7.80
2019-02-20T20:08:00.347Z,7.80
2019-02-20T20:11:01.050Z,7.80
2019-02-20T20:13:46.208Z,7.80
2019-02-20T20:16:54.466Z,7.70
2019-02-20T20:20:10.883Z,7.70
2019-02-20T20:23:21.445Z,7.70
2019-02-20T20:26:17.483Z,7.70
2019-02-20T20:29:29.341Z,7.60
2019-02-20T20:32:56.495Z,7.60
2019-02-20T20:35:57.717Z,7.50
2019-02-20T20:38:40.452Z,7.30
2019-02-20T20:41:28.500Z,7.20
2019-02-20T20:44:39.104Z,7.10
2019-02-20T20:47:26.654Z,6.90
2019-02-20T20:50:30.594Z,6.90
2019-02-20T20:53:16.505Z,6.80
2019-02-20T20:56:29.881Z,6.70
2019-02-20T20:59:25.235Z,6.60
2019-02-20T21:02:44.204Z,6.60
2019-02-20T21:05:48.778Z,6.60
2019-02-20T21:08:35.433Z,6.50
2019-02-20T21:11:29.891Z,6.30
2019-02-20T21:14:09.748Z,6.20
2019-02-20T21:17:35.916Z,6.20
2019-02-20T21:20:55.572Z,6.10
2019-02-20T21:24:12.720Z,6.00
2019-02-20T21:27:24.447Z,5.90
2019-02-20T21:30:24.527Z,5.80
2019-02-20T21:33:33.277Z,5.80
2019-02-20T21:36:18.177Z,5.70
2019-02-20T21:39:36.730Z,5.70
2019-02-20T21:42:40.292Z,5.70
2019-02-20T21:45:35.372Z,5.60
2019-02-20T21:48:21.774Z,5.60
2019-02-20T21:51:45.191Z,5.50
2019-02-20T21:54:48.760Z,5.50
2019-02-20T21:57:56.179Z,5.40
2019-02-20T22:00:55.750Z,5.30
2019-02-20T22:04:08.807Z,5.20
2019-02-20T22:07:12.352Z,5.10
2019-02-20T22:10:18.126Z,5.00
2019-02-20T22:13:40.346Z,4.80
2019-02-20T22:16:48.301Z,4.80
2019-02-20T22:19:42.977Z,4.80
2019-02-20T22:23:00.062Z,4.80
2019-02-20T22:25:58.834Z,4.80
2019-02-20T22:29:13.115Z,4.70
2019-02-20T22:32:15.155Z,4.70
2019-02-20T22:35:20.457Z,4.70
2019-02-20T22:38:36.378Z,4.70
2019-02-20T22:41:38.438Z,4.70
2019-02-20T22:44:44.659Z,4.70
2019-02-20T22:47:46.691Z,4.60
2019-02-20T22:50:49.648Z,4.60
2019-02-20T22:53:52.312Z,4.60
2019-02-20T22:56:55.499Z,4.60
2019-02-20T23:00:01.973Z,4.50
2019-02-20T23:02:56.034Z,4.50
2019-02-20T23:05:58.125Z,4.50
2019-02-20T23:09:05.525Z,4.50
2019-02-20T23:12:22.950Z,4.40
2019-02-20T23:14:57.345Z,4.30
2019-02-20T23:17:27.775Z,4.10
2019-02-20T23:19:58.040Z,4.00
2019-02-20T23:22:28.202Z,3.90
2019-02-20T23:24:58.560Z,3.90
2019-02-20T23:27:28.765Z,3.90
2019-02-20T23:29:59.127Z,3.90
2019-02-20T23:32:29.397Z,3.90
2019-02-20T23:34:59.694Z,3.90
2019-02-20T23:37:30.015Z,3.90
2019-02-20T23:40:00.463Z,3.90
2019-02-20T23:42:30.773Z,3.80
2019-02-20T23:45:01.086Z,3.80
2019-02-20T23:47:31.393Z,3.70
2019-02-20T23:50:01.596Z,3.70
2019-02-20T23:52:31.942Z,3.70
2019-02-20T23:55:02.118Z,3.60
2019-02-20T23:57:32.389Z,3.60
